Time;durP1;ratioP1;P1;durP2;ratioP2;P2;SDS_P1;SDS_P2;PMS_P1;PMS_P2;Temp;Humidity;BMP_temperature;BMP_pressure;BME280_temperature;BME280_humidity;BME280_pressure;Samples;Min_cycle;Max_cycle;Signal;HPM_P1;HPM_P2
2023/02/26 00:00:14;;;;;;;;;;;;;;;-0.18;67.40;97371.38;5108889;28;20391;-55
2023/02/26 00:05:36;;;;;;;;;;;;;;;-0.26;67.90;97383.34;5111249;28;19967;-55
2023/02/26 00:08:09;;;;;;;;;;;;;;;-0.35;68.67;97380.31;5100604;28;20017;-54
2023/02/26 00:10:43;;;;;;;;;;;;;;;-0.42;68.75;97381.59;5090648;28;19963;-54
2023/02/26 00:13:16;;;;;;;;;;;;;;;-0.31;67.83;97385.97;5101868;28;19981;-55
2023/02/26 00:15:44;;;;;;;;;;;;;;;-0.41;68.10;97385.88;5091270;28;19924;-56
2023/02/26 00:18:13;;;;;;;;;;;;;;;-0.53;68.22;97388.72;5086262;28;19924;-56
2023/02/26 00:20:42;;;;;;;;;;;;;;;-0.51;67.89;97391.91;5112235;28;19966;-55
2023/02/26 00:23:13;;;;;;;;;;;;;;;-0.46;67.95;97391.16;5081145;28;19970;-55
2023/02/26 00:25:41;;;;;;;;;;;;;;;-0.54;67.57;97397.75;5088865;28;19931;-55
2023/02/26 00:28:09;;;;;;;;;;;;;;;-0.57;68.26;97396.41;5108958;28;19928;-56
2023/02/26 00:30:38;;;;;;;;;;;;;;;-0.60;68.79;97404.91;5093080;28;19930;-54
2023/02/26 00:33:11;;;;;;;;;;;;;;;-0.66;69.50;97399.75;5096849;28;19924;-55
2023/02/26 00:35:39;;;;;;;;;;;;;;;-0.72;69.99;97398.91;5097412;28;19928;-55
2023/02/26 00:38:07;;;;;;;;;;;;;;;-0.74;70.04;97395.69;5089017;28;19931;-55
2023/02/26 00:40:36;;;;;;;;;;;;;;;-0.70;69.95;97399.44;5087364;28;20417;-55
2023/02/26 00:43:05;;;;;;;;;;;;;;;-0.77;70.82;97404.19;5085523;28;19931;-55
2023/02/26 00:45:34;;;;;;;;;;;;;;;-0.77;71.00;97401.53;5060073;28;19927;-55
2023/02/26 00:48:10;;;;;;;;;;;;;;;-0.84;71.27;97408.94;5076674;28;19931;-55
2023/02/26 00:50:40;;;;;;;;;;;;;;;-0.88;71.31;97407.81;5080753;28;20339;-55
2023/02/26 00:53:08;;;;;;;;;;;;;;;-0.80;71.32;97405.50;5085767;28;19927;-54
2023/02/26 00:55:36;;;;;;;;;;;;;;;-0.87;71.41;97404.06;5082672;28;19924;-54
2023/02/26 00:58:28;;;;;;;;;;;;;;;-0.85;71.57;97407.31;5085198;28;19999;-55
2023/02/26 01:01:03;;;;;;;;;;;;;;;-0.85;71.49;97410.00;5089035;28;19924;-55
2023/02/26 01:03:33;;;;;;;;;;;;;;;-0.73;71.12;97405.31;5082963;28;19947;-55
2023/02/26 01:06:01;;;;;;;;;;;;;;;-0.79;71.41;97411.66;5086398;28;19924;-54
2023/02/26 01:08:30;;;;;;;;;;;;;;;-0.94;71.92;97408.81;5095171;28;20030;-54
2023/02/26 01:10:58;;;;;;;;;;;;;;;-0.87;71.51;97414.75;5089507;28;19963;-55
2023/02/26 01:13:26;;;;;;;;;;;;;;;-0.93;71.51;97405.06;5080101;28;19932;-54
2023/02/26 01:15:56;;;;;;;;;;;;;;;-0.88;71.90;97407.81;5091583;28;19924;-54
2023/02/26 01:18:25;;;;;;;;;;;;;;;-0.84;71.77;97408.94;5090263;28;19955;-54
2023/02/26 01:20:57;;;;;;;;;;;;;;;-0.97;71.26;97409.28;5085146;28;20269;-54
2023/02/26 01:23:25;;;;;;;;;;;;;;;-1.08;70.97;97401.19;5083800;28;19984;-55
2023/02/26 01:25:54;;;;;;;;;;;;;;;-1.04;69.43;97408.69;5089641;28;19928;-54
2023/02/26 01:28:22;;;;;;;;;;;;;;;-1.06;69.04;97407.09;5089051;28;20382;-54
2023/02/26 01:30:51;;;;;;;;;;;;;;;-1.12;69.29;97402.75;5087454;28;19931;-54
2023/02/26 01:33:21;;;;;;;;;;;;;;;-1.35;70.25;97406.44;5085161;28;19966;-54
2023/02/26 01:35:51;;;;;;;;;;;;;;;-1.33;69.66;97412.34;5082703;28;19931;-54
2023/02/26 01:38:27;;;;;;;;;;;;;;;-1.36;70.21;97406.69;5095387;28;19923;-56
2023/02/26 01:41:04;;;;;;;;;;;;;;;-1.20;69.50;97408.50;5095878;28;19932;-55
2023/02/26 01:43:34;;;;;;;;;;;;;;;-1.17;68.94;97410.69;5091493;28;19931;-58
2023/02/26 01:46:04;;;;;;;;;;;;;;;-1.28;68.29;97406.25;5101074;28;19924;-54
2023/02/26 01:48:36;;;;;;;;;;;;;;;-1.22;68.17;97402.63;5099014;28;19924;-55
2023/02/26 01:51:04;;;;;;;;;;;;;;;-1.26;68.41;97401.50;5114157;28;19928;-55
2023/02/26 01:53:33;;;;;;;;;;;;;;;-1.31;68.17;97404.09;5101700;28;19963;-56
2023/02/26 01:56:03;;;;;;;;;;;;;;;-1.22;68.56;97418.63;5091277;28;19970;-55
2023/02/26 01:58:33;;;;;;;;;;;;;;;-1.35;69.31;97418.97;5089152;28;20500;-55
2023/02/26 02:01:06;;;;;;;;;;;;;;;-1.26;68.64;97420.16;5085045;28;19935;-56
2023/02/26 02:03:35;;;;;;;;;;;;;;;-1.26;68.62;97422.81;5106610;28;19978;-56
2023/02/26 02:06:04;;;;;;;;;;;;;;;-1.38;68.88;97422.13;5089824;28;20022;-55
2023/02/26 02:08:34;;;;;;;;;;;;;;;-1.44;69.84;97420.44;5092914;28;19923;-57
2023/02/26 02:11:02;;;;;;;;;;;;;;;-1.55;70.49;97422.16;5114167;28;19923;-56
2023/02/26 02:13:59;;;;;;;;;;;;;;;-1.44;70.07;97420.44;5114785;28;19930;-55
2023/02/26 02:16:28;;;;;;;;;;;;;;;-1.34;69.70;97420.56;5085563;28;19924;-55
2023/02/26 02:18:59;;;;;;;;;;;;;;;-1.47;69.59;97421.75;5094083;28;19946;-55
2023/02/26 02:21:28;;;;;;;;;;;;;;;-1.53;69.62;97427.25;5103385;28;19928;-54
2023/02/26 02:23:59;;;;;;;;;;;;;;;-1.53;69.58;97432.59;5097569;28;19928;-55
2023/02/26 02:26:45;;;;;;;;;;;;;;;-1.61;69.93;97428.47;5100769;28;19932;-55
2023/02/26 02:29:21;;;;;;;;;;;;;;;-1.60;69.65;97430.91;5086945;28;20020;-55
2023/02/26 02:31:52;;;;;;;;;;;;;;;-1.55;69.79;97434.66;5081574;28;19932;-56
2023/02/26 02:34:21;;;;;;;;;;;;;;;-1.47;68.44;97437.72;5094036;28;19924;-54
2023/02/26 02:36:51;;;;;;;;;;;;;;;-1.67;68.82;97437.44;5103738;28;19927;-55
2023/02/26 02:39:21;;;;;;;;;;;;;;;-1.69;68.56;97445.69;5090040;28;19924;-56
2023/02/26 02:41:51;;;;;;;;;;;;;;;-1.56;68.05;97446.38;5099359;28;19928;-55
2023/02/26 02:44:19;;;;;;;;;;;;;;;-1.53;68.11;97451.22;5080347;28;19928;-55
2023/02/26 02:46:48;;;;;;;;;;;;;;;-1.58;68.00;97452.75;5086587;28;19924;-60
2023/02/26 02:49:20;;;;;;;;;;;;;;;-1.65;68.12;97441.47;5109303;28;20028;-55
2023/02/26 02:51:51;;;;;;;;;;;;;;;-1.62;67.68;97448.97;5102785;28;19947;-55
2023/02/26 02:54:21;;;;;;;;;;;;;;;-1.68;68.27;97444.63;5111097;28;20385;-55
2023/02/26 02:56:50;;;;;;;;;;;;;;;-1.68;68.64;97462.47;5091094;28;20377;-55
2023/02/26 02:59:19;;;;;;;;;;;;;;;-1.60;68.61;97454.88;5110190;28;19932;-55
2023/02/26 03:01:48;;;;;;;;;;;;;;;-1.60;68.14;97454.88;5093850;28;19924;-55
2023/02/26 03:04:41;;;;;;;;;;;;;;;-1.48;67.93;97461.97;5090248;28;19924;-55
2023/02/26 03:07:10;;;;;;;;;;;;;;;-1.54;67.73;97457.63;5091508;28;19927;-55
2023/02/26 03:09:38;;;;;;;;;;;;;;;-1.50;67.88;97464.03;5095038;28;19931;-55
2023/02/26 03:12:06;;;;;;;;;;;;;;;-1.46;67.90;97465.19;5111257;28;20368;-56
2023/02/26 03:14:35;;;;;;;;;;;;;;;-1.59;67.92;97464.47;5088930;28;19964;-55
2023/02/26 03:17:10;;;;;;;;;;;;;;;-1.71;68.34;97468.25;5093229;28;19924;-55
2023/02/26 03:19:44;;;;;;;;;;;;;;;-1.66;68.86;97476.34;5101108;28;19924;-55
2023/02/26 03:22:17;;;;;;;;;;;;;;;-1.62;68.63;97478.25;5089331;28;19935;-56
2023/02/26 03:24:56;;;;;;;;;;;;;;;-1.55;68.00;97471.97;5100968;28;19988;-55
2023/02/26 03:27:26;;;;;;;;;;;;;;;-1.75;68.42;97488.47;5093559;28;19932;-55
2023/02/26 03:29:55;;;;;;;;;;;;;;;-1.66;68.43;97484.31;5090041;28;19927;-54
2023/02/26 03:32:24;;;;;;;;;;;;;;;-1.65;69.01;97493.91;5091298;28;19931;-54
2023/02/26 03:34:53;;;;;;;;;;;;;;;-1.72;68.77;97495.94;5102801;28;19928;-54
2023/02/26 03:37:24;;;;;;;;;;;;;;;-1.68;68.23;97489.91;5074980;28;19936;-55
2023/02/26 03:39:54;;;;;;;;;;;;;;;-1.87;68.82;97497.31;5082013;28;19924;-57
2023/02/26 03:42:23;;;;;;;;;;;;;;;-1.94;69.05;97499.34;5081664;28;20381;-55
2023/02/26 03:45:01;;;;;;;;;;;;;;;-1.93;69.05;97503.59;5075570;28;19924;-54
2023/02/26 03:47:29;;;;;;;;;;;;;;;-1.93;69.04;97497.47;5093285;28;19931;-55
2023/02/26 03:50:00;;;;;;;;;;;;;;;-2.02;69.04;97505.06;5087489;28;19931;-54
2023/02/26 03:52:34;;;;;;;;;;;;;;;-2.08;69.34;97503.34;5088864;28;19966;-56
2023/02/26 03:55:18;;;;;;;;;;;;;;;-2.10;69.20;97502.78;5090002;28;20296;-54
2023/02/26 03:58:11;;;;;;;;;;;;;;;-2.27;70.73;97505.41;5074330;28;19981;-55
2023/02/26 04:00:49;;;;;;;;;;;;;;;-2.19;70.87;97510.34;5087669;28;19943;-55
2023/02/26 04:03:17;;;;;;;;;;;;;;;-2.05;69.77;97518.84;5091083;28;19924;-55
2023/02/26 04:05:47;;;;;;;;;;;;;;;-2.12;69.93;97518.19;5079346;28;19925;-55
2023/02/26 04:08:17;;;;;;;;;;;;;;;-2.03;68.98;97522.06;5072658;28;20559;-55
2023/02/26 04:10:45;;;;;;;;;;;;;;;-2.00;68.90;97529.59;5089820;28;19924;-56
2023/02/26 04:13:15;;;;;;;;;;;;;;;-1.97;69.12;97537.09;5080926;28;21803;-55
2023/02/26 04:15:43;;;;;;;;;;;;;;;-1.97;69.65;97541.59;5089575;28;19931;-55
2023/02/26 04:18:11;;;;;;;;;;;;;;;-1.93;69.61;97538.22;5079794;28;20268;-55
2023/02/26 04:20:39;;;;;;;;;;;;;;;-1.82;68.99;97533.88;5087552;28;19928;-55
2023/02/26 04:23:07;;;;;;;;;;;;;;;-1.79;68.51;97544.06;5088413;28;19924;-55
2023/02/26 04:25:37;;;;;;;;;;;;;;;-1.77;68.85;97547.25;5089734;28;19928;-54
2023/02/26 04:28:06;;;;;;;;;;;;;;;-1.80;69.08;97542.44;5090188;28;20020;-55
2023/02/26 04:30:34;;;;;;;;;;;;;;;-1.96;68.95;97543.22;5086669;28;19928;-54
2023/02/26 04:33:52;;;;;;;;;;;;;;;-1.98;69.25;97553.28;5061728;28;19934;-55
2023/02/26 04:36:20;;;;;;;;;;;;;;;-1.75;68.50;97550.50;5081420;28;19932;-55
2023/02/26 04:38:49;;;;;;;;;;;;;;;-1.86;68.78;97552.19;5084003;28;19978;-55
2023/02/26 04:41:19;;;;;;;;;;;;;;;-1.85;68.98;97561.00;5065521;28;19986;-56
2023/02/26 04:43:49;;;;;;;;;;;;;;;-1.64;68.27;97554.97;5096533;28;19947;-55
2023/02/26 04:46:37;;;;;;;;;;;;;;;-1.79;68.31;97567.22;5077182;28;19928;-55
2023/02/26 04:49:05;;;;;;;;;;;;;;;-1.80;68.19;97566.41;5079680;28;19952;-55
2023/02/26 04:52:00;;;;;;;;;;;;;;;-1.67;68.18;97571.41;5079674;28;19983;-55
2023/02/26 04:54:28;;;;;;;;;;;;;;;-1.66;67.72;97570.34;5087074;28;19928;-55
2023/02/26 04:56:57;;;;;;;;;;;;;;;-1.74;68.63;97576.09;5090207;28;19931;-55
2023/02/26 04:59:26;;;;;;;;;;;;;;;-1.61;68.46;97580.28;5098838;28;20297;-55
2023/02/26 05:01:55;;;;;;;;;;;;;;;-1.65;67.60;97587.13;5089093;28;19974;-55
2023/02/26 05:04:23;;;;;;;;;;;;;;;-1.77;68.91;97586.41;5084853;28;19924;-55
2023/02/26 05:06:55;;;;;;;;;;;;;;;-1.52;67.98;97594.03;5093241;28;20019;-54
2023/02/26 05:09:23;;;;;;;;;;;;;;;-1.71;67.80;97604.88;5084396;28;19924;-54
2023/02/26 05:11:54;;;;;;;;;;;;;;;-1.54;67.73;97601.47;5085896;28;20285;-55
2023/02/26 05:14:26;;;;;;;;;;;;;;;-1.38;67.34;97600.66;5062412;28;20357;-55
2023/02/26 05:16:53;;;;;;;;;;;;;;;-1.35;66.98;97605.50;5101201;28;19924;-54
2023/02/26 05:19:23;;;;;;;;;;;;;;;-1.34;67.28;97609.78;5081134;28;19935;-55
2023/02/26 05:21:51;;;;;;;;;;;;;;;-1.41;67.08;97615.25;5085256;28;20278;-54
2023/02/26 05:24:19;;;;;;;;;;;;;;;-1.61;67.58;97613.06;5083182;28;20377;-55
2023/02/26 05:26:47;;;;;;;;;;;;;;;-1.53;67.30;97616.41;5082357;28;19935;-55
2023/02/26 05:29:15;;;;;;;;;;;;;;;-1.54;67.31;97607.59;5078020;28;19928;-55
2023/02/26 05:31:45;;;;;;;;;;;;;;;-1.49;67.40;97614.84;5081944;28;19932;-54
2023/02/26 05:34:14;;;;;;;;;;;;;;;-1.46;67.71;97611.72;5088549;28;19930;-54
2023/02/26 05:36:42;;;;;;;;;;;;;;;-1.29;67.50;97614.38;5077530;28;19931;-56
2023/02/26 05:39:10;;;;;;;;;;;;;;;-1.28;67.14;97610.66;5076141;28;19996;-55
2023/02/26 05:41:38;;;;;;;;;;;;;;;-1.26;67.73;97619.25;5074867;28;19971;-54
2023/02/26 05:44:08;;;;;;;;;;;;;;;-1.28;67.32;97619.47;5083012;28;19925;-55
2023/02/26 05:46:36;;;;;;;;;;;;;;;-1.22;67.88;97625.72;5085465;28;19931;-55
2023/02/26 05:49:05;;;;;;;;;;;;;;;-1.38;68.00;97616.66;5078248;28;20003;-55
2023/02/26 05:51:57;;;;;;;;;;;;;;;-1.27;67.74;97618.44;5089600;28;19928;-55
2023/02/26 05:54:25;;;;;;;;;;;;;;;-1.24;67.50;97622.47;5081437;28;19977;-55
2023/02/26 05:56:53;;;;;;;;;;;;;;;-1.22;67.73;97629.19;5082932;28;20429;-54
2023/02/26 05:59:21;;;;;;;;;;;;;;;-1.35;68.15;97626.81;5082109;28;19939;-54
2023/02/26 06:01:49;;;;;;;;;;;;;;;-1.32;68.07;97631.66;5096405;28;19944;-54
2023/02/26 06:04:18;;;;;;;;;;;;;;;-1.43;68.57;97636.03;5093024;28;19924;-54
2023/02/26 06:06:46;;;;;;;;;;;;;;;-1.42;68.59;97636.84;5091711;28;19931;-55
2023/02/26 06:09:39;;;;;;;;;;;;;;;-1.45;69.15;97643.44;5083143;28;19944;-54
2023/02/26 06:12:07;;;;;;;;;;;;;;;-1.39;69.33;97649.66;5081172;28;19960;-55
2023/02/26 06:14:35;;;;;;;;;;;;;;;-1.31;69.01;97649.28;5078159;28;20026;-54
2023/02/26 06:17:03;;;;;;;;;;;;;;;-1.28;69.29;97659.44;5089985;28;20376;-55
2023/02/26 06:19:33;;;;;;;;;;;;;;;-1.28;69.14;97653.31;5083956;28;19932;-54
2023/02/26 06:22:02;;;;;;;;;;;;;;;-1.21;69.35;97659.31;5091512;28;19977;-54
2023/02/26 06:24:30;;;;;;;;;;;;;;;-1.20;69.65;97656.38;5085953;28;19924;-54
2023/02/26 06:26:58;;;;;;;;;;;;;;;-1.11;69.08;97662.13;5092009;28;20377;-55
2023/02/26 06:29:26;;;;;;;;;;;;;;;-1.19;69.38;97662.53;5088342;28;19943;-55
2023/02/26 06:31:54;;;;;;;;;;;;;;;-1.18;69.14;97661.47;5087696;28;20600;-54
2023/02/26 06:34:22;;;;;;;;;;;;;;;-1.23;69.57;97664.84;5086842;28;19924;-55
2023/02/26 06:36:52;;;;;;;;;;;;;;;-1.21;69.32;97665.44;5088027;28;20389;-54
2023/02/26 06:39:20;;;;;;;;;;;;;;;-1.19;69.40;97675.84;5086099;28;20308;-54
2023/02/26 06:41:48;;;;;;;;;;;;;;;-1.22;69.78;97673.69;5082450;28;19924;-55
2023/02/26 06:44:16;;;;;;;;;;;;;;;-1.14;69.74;97687.41;5077111;28;19924;-54
2023/02/26 06:46:44;;;;;;;;;;;;;;;-1.29;69.83;97689.81;5083178;28;19924;-56
2023/02/26 06:49:14;;;;;;;;;;;;;;;-1.08;69.45;97693.63;5084569;28;19924;-55
2023/02/26 06:51:43;;;;;;;;;;;;;;;-1.21;69.90;97701.94;5084985;28;19924;-58
2023/02/26 06:54:12;;;;;;;;;;;;;;;-1.13;69.28;97705.00;5083892;28;19978;-58
2023/02/26 06:56:40;;;;;;;;;;;;;;;-1.19;70.24;97708.63;5085146;28;19924;-55
2023/02/26 06:59:08;;;;;;;;;;;;;;;-1.10;69.66;97717.88;5079290;28;19924;-55
2023/02/26 07:01:36;;;;;;;;;;;;;;;-1.04;69.55;97724.09;5085860;28;19924;-55
2023/02/26 07:04:04;;;;;;;;;;;;;;;-0.93;69.10;97725.06;5087211;28;19931;-56
2023/02/26 07:06:32;;;;;;;;;;;;;;;-1.09;69.37;97732.00;5091527;28;19931;-56
2023/02/26 07:09:00;;;;;;;;;;;;;;;-1.27;70.50;97741.03;5089031;28;19932;-55
2023/02/26 07:11:30;;;;;;;;;;;;;;;-1.22;69.89;97737.66;5089071;28;19928;-56
2023/02/26 07:13:58;;;;;;;;;;;;;;;-1.26;69.81;97750.63;5078323;28;20622;-55
2023/02/26 07:16:27;;;;;;;;;;;;;;;-1.17;69.34;97757.22;5085718;28;19924;-55
2023/02/26 07:18:56;;;;;;;;;;;;;;;-1.35;69.98;97754.72;5084262;28;19928;-55
2023/02/26 07:21:24;;;;;;;;;;;;;;;-1.25;69.60;97757.59;5088473;28;19962;-54
2023/02/26 07:23:53;;;;;;;;;;;;;;;-1.17;69.76;97751.03;5079863;28;19924;-55
2023/02/26 07:26:21;;;;;;;;;;;;;;;-1.06;69.71;97759.00;5087221;28;20349;-55
2023/02/26 07:28:50;;;;;;;;;;;;;;;-1.08;70.28;97765.59;5088420;28;19942;-54
2023/02/26 07:31:21;;;;;;;;;;;;;;;-1.00;69.56;97770.56;5084064;28;19928;-54
2023/02/26 07:33:49;;;;;;;;;;;;;;;-0.87;68.85;97774.78;5079082;28;19936;-54
2023/02/26 07:36:18;;;;;;;;;;;;;;;-0.80;68.77;97778.91;5094085;28;19930;-54
2023/02/26 07:38:46;;;;;;;;;;;;;;;-0.60;69.06;97775.75;5081452;28;19923;-54
2023/02/26 07:41:16;;;;;;;;;;;;;;;-0.63;69.04;97783.44;5102384;28;19943;-54
2023/02/26 07:43:45;;;;;;;;;;;;;;;-0.63;70.32;97788.78;5104660;28;19976;-54
2023/02/26 07:46:15;;;;;;;;;;;;;;;-0.35;69.13;97785.22;5100169;28;19925;-54
2023/02/26 07:48:43;;;;;;;;;;;;;;;-0.49;69.53;97786.59;5099630;28;20392;-54
2023/02/26 07:51:18;;;;;;;;;;;;;;;-0.35;69.20;97793.22;5097144;28;19981;-54
2023/02/26 07:53:46;;;;;;;;;;;;;;;-0.35;69.18;97790.56;5085316;28;19924;-54
2023/02/26 07:56:14;;;;;;;;;;;;;;;-0.11;69.30;97797.31;5090291;28;19932;-54
2023/02/26 07:58:42;;;;;;;;;;;;;;;-0.18;69.28;97811.91;5105558;28;19931;-54
2023/02/26 08:01:11;;;;;;;;;;;;;;;-0.19;69.54;97805.75;5096945;28;19927;-54
2023/02/26 08:03:41;;;;;;;;;;;;;;;-0.12;69.94;97800.22;5086669;28;19931;-54
2023/02/26 08:06:09;;;;;;;;;;;;;;;-0.07;69.60;97814.47;5103455;28;19931;-54
2023/02/26 08:08:37;;;;;;;;;;;;;;;0.19;68.70;97814.84;5110234;28;19931;-54
2023/02/26 08:11:04;;;;;;;;;;;;;;;0.38;68.01;97816.16;5108444;28;19923;-54
2023/02/26 08:13:33;;;;;;;;;;;;;;;0.11;67.81;97823.28;5085276;28;19935;-54
2023/02/26 08:16:01;;;;;;;;;;;;;;;0.17;67.91;97819.63;5111833;28;19924;-54
2023/02/26 08:18:57;;;;;;;;;;;;;;;0.19;68.12;97826.31;5102185;28;20299;-53
2023/02/26 08:21:26;;;;;;;;;;;;;;;0.28;68.52;97823.25;5096814;28;19932;-54
2023/02/26 08:23:54;;;;;;;;;;;;;;;0.31;67.35;97820.88;5102446;28;19928;-54
2023/02/26 08:26:21;;;;;;;;;;;;;;;0.32;67.97;97830.53;5112207;28;19923;-54
2023/02/26 08:28:50;;;;;;;;;;;;;;;0.35;67.77;97830.00;5108629;28;19928;-54
2023/02/26 08:31:18;;;;;;;;;;;;;;;0.33;67.06;97829.47;5110652;28;19935;-54
2023/02/26 08:33:46;;;;;;;;;;;;;;;0.45;65.88;97832.81;5105258;28;19924;-54
2023/02/26 08:36:16;;;;;;;;;;;;;;;0.71;64.80;97843.81;5102003;28;19960;-54
2023/02/26 08:38:44;;;;;;;;;;;;;;;0.37;63.76;97843.13;5084658;28;19928;-54
2023/02/26 08:41:13;;;;;;;;;;;;;;;0.35;62.26;97846.03;5095213;28;19923;-54
2023/02/26 08:43:41;;;;;;;;;;;;;;;0.21;62.32;97853.63;5105347;28;19939;-54
2023/02/26 08:46:09;;;;;;;;;;;;;;;0.09;63.00;97854.75;5112054;28;19972;-54
2023/02/26 08:48:37;;;;;;;;;;;;;;;0.08;62.33;97853.16;5103390;28;20265;-54
2023/02/26 08:51:05;;;;;;;;;;;;;;;0.10;62.59;97861.72;5112439;28;19924;-54
2023/02/26 08:53:34;;;;;;;;;;;;;;;0.07;62.50;97859.53;5103999;28;19924;-54
2023/02/26 08:56:03;;;;;;;;;;;;;;;0.28;62.78;97869.47;5095082;28;19924;-53
2023/02/26 08:58:31;;;;;;;;;;;;;;;0.30;62.08;97871.88;5100685;28;19927;-54
2023/02/26 09:01:24;;;;;;;;;;;;;;;0.34;62.46;97884.50;5102273;28;19923;-54
2023/02/26 09:03:52;;;;;;;;;;;;;;;0.37;64.11;97884.00;5094887;28;19928;-54
2023/02/26 09:06:24;;;;;;;;;;;;;;;0.43;64.43;97885.72;5082656;28;19928;-54
2023/02/26 09:08:54;;;;;;;;;;;;;;;0.40;62.82;97888.88;5103957;28;19932;-54
2023/02/26 09:11:29;;;;;;;;;;;;;;;0.65;63.23;97904.47;5100658;28;19925;-54
2023/02/26 09:13:58;;;;;;;;;;;;;;;0.68;63.83;97905.81;5108689;28;19945;-54
2023/02/26 09:16:29;;;;;;;;;;;;;;;0.81;62.86;97904.66;5110519;28;19963;-54
2023/02/26 09:18:58;;;;;;;;;;;;;;;0.78;62.12;97908.63;5083248;28;20034;-54
2023/02/26 09:21:26;;;;;;;;;;;;;;;0.98;62.47;97911.56;5108566;28;19930;-54
2023/02/26 09:23:59;;;;;;;;;;;;;;;0.97;62.03;97920.63;5104878;28;19923;-54
2023/02/26 09:26:27;;;;;;;;;;;;;;;1.11;60.60;97914.91;5099142;28;19928;-54
2023/02/26 09:28:55;;;;;;;;;;;;;;;1.24;59.62;97926.03;5103200;28;19924;-54
2023/02/26 09:31:23;;;;;;;;;;;;;;;1.25;57.87;97918.81;5101211;28;19935;-58
2023/02/26 09:33:52;;;;;;;;;;;;;;;1.44;57.95;97909.41;5110072;28;19924;-54
2023/02/26 09:36:20;;;;;;;;;;;;;;;1.66;57.53;97920.06;5105712;28;20168;-54
2023/02/26 09:38:49;;;;;;;;;;;;;;;1.74;57.00;97913.41;5106314;28;19924;-55
2023/02/26 09:41:19;;;;;;;;;;;;;;;1.83;57.00;97927.97;5110793;28;20270;-54
2023/02/26 09:43:49;;;;;;;;;;;;;;;1.65;54.98;97936.34;5113059;28;19943;-54
2023/02/26 09:46:22;;;;;;;;;;;;;;;1.48;53.94;97942.63;5106243;28;19924;-54
2023/02/26 09:48:50;;;;;;;;;;;;;;;1.33;55.70;97950.47;5104629;28;20268;-54
2023/02/26 09:51:19;;;;;;;;;;;;;;;1.61;54.65;97944.09;5104847;27;20044;-54
2023/02/26 09:53:48;;;;;;;;;;;;;;;1.44;55.05;97948.72;5106667;27;20299;-54
2023/02/26 09:56:19;;;;;;;;;;;;;;;1.30;55.63;97954.47;5111096;28;19947;-54
2023/02/26 09:58:46;;;;;;;;;;;;;;;1.34;55.25;97952.13;5111496;28;20380;-54
2023/02/26 10:04:09;;;;;;;;;;;;;;;1.33;55.67;97955.81;5093120;28;19992;-54
2023/02/26 10:06:39;;;;;;;;;;;;;;;1.20;55.31;97962.38;5113240;28;19930;-54
2023/02/26 10:09:12;;;;;;;;;;;;;;;1.28;54.14;97974.53;5103695;28;20379;-53
2023/02/26 10:11:45;;;;;;;;;;;;;;;1.49;54.18;97960.31;5112737;28;19924;-54
2023/02/26 10:17:08;;;;;;;;;;;;;;;1.63;52.84;97965.25;5103926;28;20400;-54
2023/02/26 10:19:36;;;;;;;;;;;;;;;1.62;52.18;97964.47;5097154;28;19932;-54
2023/02/26 10:22:06;;;;;;;;;;;;;;;1.53;53.11;97971.31;5104354;28;19928;-54
2023/02/26 10:25:00;;;;;;;;;;;;;;;1.74;52.85;97961.63;5105950;28;19935;-53
2023/02/26 10:27:38;;;;;;;;;;;;;;;1.58;51.84;97984.75;5111259;28;20382;-53
2023/02/26 10:30:07;;;;;;;;;;;;;;;1.47;51.69;97978.47;5082843;28;19956;-56
2023/02/26 10:32:36;;;;;;;;;;;;;;;1.37;52.06;97973.00;5100184;27;20026;-54
2023/02/26 10:35:07;;;;;;;;;;;;;;;1.54;51.97;97995.16;5105753;27;19955;-53
2023/02/26 10:37:39;;;;;;;;;;;;;;;1.30;52.26;97993.81;5099061;27;20054;-54
2023/02/26 10:40:10;;;;;;;;;;;;;;;1.41;52.35;98000.09;5100577;28;19969;-54
2023/02/26 10:42:40;;;;;;;;;;;;;;;1.71;51.68;97999.66;5086640;28;19924;-53
2023/02/26 10:45:13;;;;;;;;;;;;;;;1.73;49.54;97995.63;5100899;28;19931;-53
2023/02/26 10:47:42;;;;;;;;;;;;;;;1.63;49.04;97981.34;5105807;28;20006;-53
2023/02/26 10:50:13;;;;;;;;;;;;;;;1.62;49.38;97985.06;5104083;28;19936;-54
2023/02/26 10:52:42;;;;;;;;;;;;;;;1.74;49.54;97977.69;5105972;27;19928;-53
2023/02/26 10:55:21;;;;;;;;;;;;;;;1.93;49.61;97992.38;5101645;27;19932;-53
2023/02/26 10:57:55;;;;;;;;;;;;;;;2.18;48.92;97982.94;5099567;28;20266;-52
2023/02/26 11:00:24;;;;;;;;;;;;;;;2.42;49.08;97992.25;5103567;28;20369;-53
2023/02/26 11:02:53;;;;;;;;;;;;;;;1.96;50.23;97991.84;5111144;28;19928;-52
2023/02/26 11:05:22;;;;;;;;;;;;;;;1.67;51.68;98007.38;5107036;28;19928;-53
2023/02/26 11:07:52;;;;;;;;;;;;;;;1.44;52.83;98000.41;5099892;27;20011;-54
2023/02/26 11:10:22;;;;;;;;;;;;;;;1.24;53.73;98002.84;5104129;28;20662;-54
2023/02/26 11:12:50;;;;;;;;;;;;;;;1.29;54.10;97998.38;5113852;28;20325;-53
2023/02/26 11:15:23;;;;;;;;;;;;;;;1.52;53.89;97999.97;5100451;27;19959;-55
2023/02/26 11:17:53;;;;;;;;;;;;;;;1.74;54.14;98002.59;5098232;28;19924;-53
2023/02/26 11:20:30;;;;;;;;;;;;;;;1.65;53.89;97998.78;5097294;28;19939;-53
2023/02/26 11:22:59;;;;;;;;;;;;;;;1.58;54.20;97996.28;5096044;28;19932;-53
2023/02/26 11:25:28;;;;;;;;;;;;;;;1.47;54.59;97991.06;5093196;28;19931;-53
2023/02/26 11:27:59;;;;;;;;;;;;;;;1.94;53.76;97993.97;5085090;28;20441;-53
2023/02/26 11:30:30;;;;;;;;;;;;;;;2.00;53.31;97987.59;5108025;27;19976;-52
2023/02/26 11:36:16;;;;;;;;;;;;;;;1.98;52.19;97987.06;5109047;28;20409;-53
2023/02/26 11:38:44;;;;;;;;;;;;;;;1.85;52.03;97984.78;5105840;28;19928;-54
2023/02/26 11:41:13;;;;;;;;;;;;;;;2.07;52.46;97984.72;5101351;28;20345;-54
2023/02/26 11:43:42;;;;;;;;;;;;;;;1.95;51.79;97989.44;5107010;28;20396;-54
2023/02/26 11:46:13;;;;;;;;;;;;;;;1.98;51.71;97988.94;5110620;27;20388;-54
2023/02/26 11:48:42;;;;;;;;;;;;;;;2.20;51.70;97986.97;5099543;27;20422;-54
2023/02/26 11:51:12;;;;;;;;;;;;;;;2.61;50.33;97988.13;5084880;27;19932;-55
2023/02/26 11:53:42;;;;;;;;;;;;;;;2.53;49.40;97996.63;5105959;28;19931;-54
2023/02/26 11:56:11;;;;;;;;;;;;;;;2.59;48.70;97992.91;5101517;28;19930;-55
2023/02/26 11:58:44;;;;;;;;;;;;;;;3.00;47.43;97995.84;5094908;28;19932;-54
2023/02/26 12:01:21;;;;;;;;;;;;;;;3.31;47.44;97977.22;5104408;28;20277;-55
2023/02/26 12:03:52;;;;;;;;;;;;;;;3.72;46.69;97977.34;5107501;28;19935;-54
2023/02/26 12:06:21;;;;;;;;;;;;;;;3.43;47.96;97969.75;5107623;28;19943;-54
2023/02/26 12:08:52;;;;;;;;;;;;;;;3.51;47.38;97969.22;5106322;28;20435;-54
2023/02/26 12:11:46;;;;;;;;;;;;;;;3.13;48.37;97973.91;5108340;28;19938;-53
2023/02/26 12:14:45;;;;;;;;;;;;;;;2.60;48.35;97981.09;5106324;28;19926;-53
2023/02/26 12:17:19;;;;;;;;;;;;;;;2.57;49.54;97975.47;5105082;28;19935;-53
2023/02/26 12:19:49;;;;;;;;;;;;;;;2.41;48.00;97969.19;5085157;28;19954;-54
2023/02/26 12:22:31;;;;;;;;;;;;;;;2.29;48.66;97964.00;5106193;28;19924;-54
2023/02/26 12:25:05;;;;;;;;;;;;;;;2.23;48.98;97970.38;5100225;28;19928;-60
2023/02/26 12:27:38;;;;;;;;;;;;;;;2.19;48.47;97976.53;5097769;28;20368;-54
2023/02/26 12:30:13;;;;;;;;;;;;;;;1.95;48.64;97984.06;5105952;28;19977;-53
2023/02/26 12:32:47;;;;;;;;;;;;;;;2.21;47.80;97979.75;5107941;28;19931;-54
2023/02/26 12:35:39;;;;;;;;;;;;;;;2.32;48.30;97976.06;5104512;28;19990;-53
2023/02/26 12:38:16;;;;;;;;;;;;;;;2.58;48.43;97979.75;5108334;28;19924;-60
2023/02/26 12:40:48;;;;;;;;;;;;;;;2.57;48.68;97984.31;5098127;28;19924;-53
2023/02/26 12:43:20;;;;;;;;;;;;;;;2.46;49.17;97987.19;5107397;28;19928;-53
2023/02/26 12:45:52;;;;;;;;;;;;;;;2.32;48.95;97990.28;5102623;28;20011;-54
2023/02/26 12:48:42;;;;;;;;;;;;;;;2.14;48.18;97981.84;5106572;28;20373;-53
2023/02/26 12:51:13;;;;;;;;;;;;;;;2.13;48.27;97993.59;5105803;28;19996;-54
2023/02/26 12:53:51;;;;;;;;;;;;;;;2.18;48.05;97993.66;5105777;28;20281;-53
2023/02/26 12:56:29;;;;;;;;;;;;;;;2.21;48.88;97993.16;5105550;28;19976;-54
2023/02/26 12:59:00;;;;;;;;;;;;;;;2.23;48.61;97996.38;5101492;28;19924;-54
2023/02/26 13:01:37;;;;;;;;;;;;;;;1.92;48.46;97993.44;5101223;28;19927;-53
2023/02/26 13:04:26;;;;;;;;;;;;;;;1.71;48.43;98010.34;5100954;28;19961;-54
2023/02/26 13:07:16;;;;;;;;;;;;;;;1.74;48.08;98001.81;5102620;28;20408;-53
2023/02/26 13:09:54;;;;;;;;;;;;;;;1.76;48.14;97991.66;5099691;28;19930;-53
2023/02/26 13:12:25;;;;;;;;;;;;;;;1.84;47.77;98000.03;5095967;28;19952;-52
2023/02/26 13:14:55;;;;;;;;;;;;;;;2.13;47.41;97997.13;5106230;28;19923;-53
2023/02/26 13:17:26;;;;;;;;;;;;;;;2.44;46.39;98002.72;5088238;28;20448;-53
2023/02/26 13:19:56;;;;;;;;;;;;;;;2.26;48.98;98003.91;5105973;28;20031;-53
2023/02/26 13:22:27;;;;;;;;;;;;;;;2.18;46.28;97999.00;5099368;28;20385;-53